JBU357 KAUO-KMEM
Flight info
| Callsign | JBU357 |
|---|---|
| Flight time | N/A |
| Altitude | 34000 |
| Route | WASER VANZE3 |
| Aircraft | BCS3/M-SBDE2E3GIRWXY/LB1 |
Departure
| Time | 2026-05-07 03:39 |
|---|---|
| Airport | Auburn University Regional Airport (KAUO) |
Arrival
| Time | N/A |
|---|---|
| Airport | Memphis International Airport (KMEM) |
| Time | Latitude | Longitude | Altitude | Speed | Heading |
|---|---|---|---|---|---|
| 2026-05-07 03:17 | 32.61343 | -85.43351 | 762 ft | 0 kts | 271° |
| 2026-05-07 03:30 | 32.61341 | -85.43358 | 798 ft | 5 kts | 253° |
| 2026-05-07 03:30 | 32.61297 | -85.43358 | 760 ft | 6 kts | 139° |
| 2026-05-07 03:30 | 32.61249 | -85.43325 | 762 ft | 10 kts | 169° |
| 2026-05-07 03:31 | 32.61234 | -85.43388 | 755 ft | 18 kts | 269° |
| 2026-05-07 03:31 | 32.61254 | -85.43486 | 765 ft | 11 kts | 333° |
| 2026-05-07 03:31 | 32.61448 | -85.43487 | 768 ft | 28 kts | 0° |
| 2026-05-07 03:31 | 32.61586 | -85.43406 | 772 ft | 19 kts | 41° |
| 2026-05-07 03:32 | 32.61694 | -85.43332 | 779 ft | 23 kts | 16° |
| 2026-05-07 03:32 | 32.61892 | -85.43260 | 783 ft | 35 kts | 17° |
| 2026-05-07 03:32 | 32.61948 | -85.43264 | 783 ft | 11 kts | 305° |
| 2026-05-07 03:32 | 32.61984 | -85.43399 | 788 ft | 13 kts | 284° |
| 2026-05-07 03:33 | 32.62008 | -85.43491 | 787 ft | 12 kts | 282° |
| 2026-05-07 03:33 | 32.62010 | -85.43500 | 787 ft | 0 kts | 281° |
| 2026-05-07 03:38 | 32.62010 | -85.43502 | 787 ft | 3 kts | 281° |
| 2026-05-07 03:38 | 32.62011 | -85.43575 | 787 ft | 7 kts | 263° |
| 2026-05-07 03:38 | 32.61986 | -85.43603 | 786 ft | 3 kts | 195° |
| 2026-05-07 03:38 | 32.61979 | -85.43604 | 785 ft | 0 kts | 188° |
| 2026-05-07 03:39 | 32.61762 | -85.43609 | 780 ft | 82 kts | 180° |
| 2026-05-07 03:39 | 32.60851 | -85.43644 | 870 ft | 172 kts | 182° |
| 2026-05-07 03:39 | 32.59517 | -85.43735 | 1673 ft | 207 kts | 186° |
| 2026-05-07 03:39 | 32.58083 | -85.43803 | 2162 ft | 190 kts | 184° |
| 2026-05-07 03:40 | 32.56929 | -85.43741 | 2615 ft | 155 kts | 180° |
| 2026-05-07 03:40 | 32.55845 | -85.43636 | 3072 ft | 157 kts | 179° |
| 2026-05-07 03:40 | 32.54767 | -85.43523 | 3495 ft | 154 kts | 182° |
| 2026-05-07 03:40 | 32.53697 | -85.43990 | 3660 ft | 204 kts | 227° |
| 2026-05-07 03:41 | 32.53106 | -85.45753 | 4063 ft | 254 kts | 265° |
| 2026-05-07 03:41 | 32.53650 | -85.47751 | 4514 ft | 268 kts | 302° |
| 2026-05-07 03:41 | 32.55193 | -85.49083 | 5082 ft | 283 kts | 330° |
| 2026-05-07 03:41 | 32.57019 | -85.49985 | 6207 ft | 283 kts | 332° |
| 2026-05-07 03:42 | 32.58857 | -85.50818 | 7732 ft | 282 kts | 332° |
| 2026-05-07 03:42 | 32.60691 | -85.51626 | 9337 ft | 282 kts | 331° |
| 2026-05-07 03:42 | 32.62545 | -85.52447 | 10712 ft | 290 kts | 330° |
| 2026-05-07 03:42 | 32.64264 | -85.53669 | 11597 ft | 294 kts | 306° |
| 2026-05-07 03:43 | 32.65523 | -85.55642 | 12539 ft | 307 kts | 298° |
| 2026-05-07 03:43 | 32.66740 | -85.57810 | 13561 ft | 323 kts | 297° |
| 2026-05-07 03:43 | 32.67993 | -85.60088 | 14554 ft | 334 kts | 297° |
| 2026-05-07 03:43 | 32.69279 | -85.62438 | 15604 ft | 344 kts | 297° |
| 2026-05-07 03:44 | 32.70579 | -85.64815 | 16678 ft | 351 kts | 297° |
| 2026-05-07 03:44 | 32.71927 | -85.67272 | 17773 ft | 358 kts | 299° |
| 2026-05-07 03:44 | 32.73478 | -85.69644 | 18780 ft | 368 kts | 305° |
| 2026-05-07 03:44 | 32.75115 | -85.72013 | 19710 ft | 372 kts | 302° |
| 2026-05-07 03:45 | 32.76648 | -85.74518 | 20619 ft | 378 kts | 302° |
| 2026-05-07 03:45 | 32.78305 | -85.76988 | 21514 ft | 385 kts | 304° |
| 2026-05-07 03:45 | 32.79955 | -85.79514 | 22399 ft | 389 kts | 302° |
| 2026-05-07 03:45 | 32.81570 | -85.82075 | 23249 ft | 395 kts | 303° |
| 2026-05-07 03:46 | 32.83295 | -85.84655 | 24000 ft | 401 kts | 303° |
| 2026-05-07 03:46 | 32.84996 | -85.87313 | 24681 ft | 405 kts | 302° |
| 2026-05-07 03:46 | 32.86726 | -85.90001 | 25358 ft | 411 kts | 303° |
| 2026-05-07 03:46 | 32.88503 | -85.92697 | 26014 ft | 416 kts | 303° |
| 2026-05-07 03:47 | 32.90261 | -85.95457 | 26664 ft | 421 kts | 302° |
| 2026-05-07 03:47 | 32.92073 | -85.98245 | 27299 ft | 427 kts | 303° |
| 2026-05-07 03:47 | 32.93883 | -86.01028 | 27916 ft | 432 kts | 302° |
| 2026-05-07 03:47 | 32.95714 | -86.03898 | 28525 ft | 438 kts | 303° |
| 2026-05-07 03:48 | 32.97592 | -86.06782 | 29127 ft | 443 kts | 303° |
| 2026-05-07 03:48 | 32.99479 | -86.09715 | 29690 ft | 448 kts | 302° |
| 2026-05-07 03:48 | 33.01383 | -86.12687 | 30234 ft | 454 kts | 303° |
| 2026-05-07 03:48 | 33.03331 | -86.15690 | 30683 ft | 459 kts | 303° |
| 2026-05-07 03:49 | 33.05280 | -86.18737 | 31150 ft | 464 kts | 302° |
| 2026-05-07 03:49 | 33.07255 | -86.21809 | 31624 ft | 468 kts | 303° |
| 2026-05-07 03:49 | 33.09217 | -86.24850 | 32164 ft | 465 kts | 302° |
| 2026-05-07 03:49 | 33.11158 | -86.27889 | 33074 ft | 452 kts | 302° |
| 2026-05-07 03:50 | 33.13017 | -86.30772 | 33539 ft | 430 kts | 302° |
| 2026-05-07 03:50 | 33.14831 | -86.33626 | 33801 ft | 434 kts | 301° |
| 2026-05-07 03:50 | 33.16678 | -86.36514 | 33905 ft | 440 kts | 302° |
| 2026-05-07 03:51 | 33.20399 | -86.42335 | 33981 ft | 444 kts | 301° |
| 2026-05-07 03:51 | 33.24151 | -86.48195 | 33995 ft | 444 kts | 301° |
| 2026-05-07 03:52 | 33.27899 | -86.54082 | 33990 ft | 445 kts | 301° |
| 2026-05-07 03:52 | 33.31643 | -86.59979 | 33964 ft | 444 kts | 301° |
| 2026-05-07 03:53 | 33.35361 | -86.65827 | 33959 ft | 444 kts | 300° |
| 2026-05-07 03:53 | 33.39084 | -86.71689 | 33999 ft | 441 kts | 300° |
| 2026-05-07 03:54 | 33.42799 | -86.77557 | 34003 ft | 440 kts | 300° |
| 2026-05-07 03:54 | 33.46476 | -86.83385 | 34006 ft | 442 kts | 300° |
| 2026-05-07 03:55 | 33.50187 | -86.89264 | 34002 ft | 442 kts | 299° |
| 2026-05-07 03:55 | 33.54345 | -86.94801 | 33999 ft | 450 kts | 306° |
| 2026-05-07 03:56 | 33.58637 | -87.00249 | 33992 ft | 447 kts | 303° |
| 2026-05-07 03:56 | 33.62636 | -87.05849 | 33982 ft | 438 kts | 296° |
| 2026-05-07 03:57 | 33.66134 | -87.11824 | 33970 ft | 441 kts | 299° |
| 2026-05-07 03:57 | 33.69689 | -87.17752 | 33977 ft | 436 kts | 297° |
| 2026-05-07 03:58 | 33.73242 | -87.23571 | 33987 ft | 432 kts | 295° |
| 2026-05-07 03:58 | 33.76817 | -87.29406 | 33991 ft | 430 kts | 295° |
| 2026-05-07 03:59 | 33.80336 | -87.35246 | 33995 ft | 431 kts | 296° |
| 2026-05-07 03:59 | 33.83798 | -87.41053 | 33995 ft | 429 kts | 296° |
| 2026-05-07 04:00 | 33.87295 | -87.46855 | 33985 ft | 426 kts | 295° |
| 2026-05-07 04:00 | 33.90796 | -87.52640 | 33980 ft | 426 kts | 295° |
| 2026-05-07 04:01 | 33.94245 | -87.58399 | 33977 ft | 427 kts | 296° |
| 2026-05-07 04:01 | 33.97702 | -87.64206 | 33963 ft | 426 kts | 295° |
| 2026-05-07 04:02 | 33.99574 | -87.67296 | 33960 ft | 426 kts | 295° |